createdAt,value
2022-10-23T00:00:24.495Z,9.65
2022-10-23T00:02:27.174Z,12.32
2022-10-23T00:04:29.837Z,11.35
2022-10-23T00:06:35.058Z,12.25
2022-10-23T00:08:37.954Z,11.82
2022-10-23T00:10:42.467Z,8.38
2022-10-23T00:12:45.389Z,11.13
2022-10-23T00:14:48.103Z,10.45
2022-10-23T00:16:51.068Z,10.77
2022-10-23T00:18:53.786Z,9.25
2022-10-23T00:20:57.135Z,10.50
2022-10-23T00:23:01.160Z,10.18
2022-10-23T00:25:03.886Z,10.82
2022-10-23T00:27:06.530Z,12.80
2022-10-23T00:29:09.823Z,13.32
2022-10-23T00:31:12.821Z,13.27
2022-10-23T00:33:15.465Z,8.32
2022-10-23T00:35:18.199Z,6.57
2022-10-23T00:37:20.865Z,10.45
2022-10-23T00:39:24.829Z,8.32
2022-10-23T00:41:29.954Z,17.20
2022-10-23T00:43:34.545Z,11.93
2022-10-23T00:45:37.179Z,11.70
2022-10-23T00:47:39.987Z,9.18
2022-10-23T00:49:42.919Z,9.55
2022-10-23T00:51:49.931Z,14.52
2022-10-23T00:54:06.704Z,11.40
2022-10-23T00:56:22.574Z,10.30
2022-10-23T00:58:25.214Z,9.65
2022-10-23T01:02:59.206Z,13.57
2022-10-23T01:05:06.799Z,12.85
2022-10-23T01:07:16.054Z,12.18
2022-10-23T01:09:25.301Z,14.43
2022-10-23T01:11:36.341Z,7.63
2022-10-23T01:13:45.544Z,16.55
2022-10-23T01:15:54.590Z,17.33
2022-10-23T01:18:03.316Z,20.13
2022-10-23T01:20:21.661Z,11.43
2022-10-23T01:22:50.808Z,12.80
2022-10-23T01:24:59.176Z,10.77
2022-10-23T01:27:27.630Z,13.32
2022-10-23T01:29:37.757Z,10.48
2022-10-23T01:31:46.060Z,9.70
2022-10-23T01:33:52.474Z,12.95
2022-10-23T01:36:01.422Z,16.83
2022-10-23T01:38:08.697Z,16.08
2022-10-23T01:40:21.312Z,15.02
2022-10-23T01:42:30.177Z,10.68
2022-10-23T01:44:37.509Z,12.60
2022-10-23T01:46:41.170Z,9.95
2022-10-23T01:48:51.281Z,12.90
2022-10-23T01:50:56.773Z,14.93
2022-10-23T01:52:59.860Z,18.13
2022-10-23T01:55:02.982Z,13.70
2022-10-23T01:57:09.476Z,15.60
2022-10-23T01:59:15.936Z,14.90
2022-10-23T02:01:24.484Z,7.68
2022-10-23T02:03:30.097Z,15.18
2022-10-23T02:05:33.270Z,12.20
2022-10-23T02:07:37.130Z,8.98
2022-10-23T02:09:40.413Z,10.43
2022-10-23T02:11:51.476Z,13.00
2022-10-23T02:14:00.868Z,10.68
2022-10-23T02:16:11.852Z,10.25
2022-10-23T02:18:27.900Z,10.57
2022-10-23T02:20:36.982Z,8.70
2022-10-23T02:22:43.449Z,15.73
2022-10-23T02:24:51.086Z,11.40
2022-10-23T02:26:56.780Z,14.32
2022-10-23T02:29:07.095Z,6.80
2022-10-23T02:31:13.600Z,17.48
2022-10-23T02:33:18.811Z,11.23
2022-10-23T02:35:24.232Z,10.75
2022-10-23T02:37:26.942Z,10.65
2022-10-23T02:39:30.178Z,9.23
2022-10-23T02:41:42.544Z,14.38
2022-10-23T02:43:58.521Z,13.73
2022-10-23T02:46:11.248Z,8.70
2022-10-23T02:48:23.597Z,12.20
2022-10-23T02:50:34.061Z,15.40
2022-10-23T02:52:42.960Z,13.00
2022-10-23T02:54:58.936Z,12.90
2022-10-23T02:57:06.487Z,13.07
2022-10-23T02:59:18.457Z,14.38
2022-10-23T03:01:27.300Z,15.77
2022-10-23T03:03:36.690Z,12.93
2022-10-23T03:05:41.647Z,8.82
2022-10-23T03:07:45.477Z,8.77
2022-10-23T03:09:48.294Z,15.85
2022-10-23T03:11:50.973Z,10.50
2022-10-23T03:13:53.820Z,15.20
2022-10-23T03:15:56.448Z,10.07
2022-10-23T03:17:59.054Z,9.23
2022-10-23T03:20:03.106Z,12.02
2022-10-23T03:22:05.790Z,11.13
2022-10-23T03:24:08.724Z,13.65
2022-10-23T03:26:11.373Z,8.23
2022-10-23T03:28:14.002Z,10.40
2022-10-23T03:30:16.745Z,9.65
2022-10-23T03:32:19.401Z,8.85
2022-10-23T03:34:22.136Z,11.90
2022-10-23T03:36:26.254Z,10.68
2022-10-23T03:38:28.924Z,12.55
2022-10-23T03:40:31.729Z,8.38
2022-10-23T03:42:34.331Z,10.38
2022-10-23T03:44:37.003Z,9.85
2022-10-23T03:46:40.582Z,10.23
2022-10-23T03:48:43.308Z,15.50
2022-10-23T03:50:45.938Z,11.00
2022-10-23T03:52:49.997Z,8.43
2022-10-23T03:54:52.746Z,9.60
2022-10-23T03:56:57.513Z,9.98
2022-10-23T03:59:03.912Z,11.57
2022-10-23T04:01:06.657Z,11.52
2022-10-23T04:03:09.319Z,15.13
2022-10-23T04:05:12.046Z,12.35
2022-10-23T04:07:14.717Z,10.45
2022-10-23T04:09:18.721Z,10.70
2022-10-23T04:11:21.399Z,13.30
2022-10-23T04:13:24.024Z,11.07
2022-10-23T04:15:26.649Z,12.50
2022-10-23T04:17:29.336Z,11.02
2022-10-23T04:19:32.126Z,12.48
2022-10-23T04:21:35.003Z,9.23
2022-10-23T04:23:38.198Z,14.65
2022-10-23T04:25:42.281Z,12.70
2022-10-23T04:27:45.227Z,13.93
2022-10-23T04:29:49.128Z,13.25
2022-10-23T04:31:52.354Z,12.98
2022-10-23T04:33:55.148Z,11.07
2022-10-23T04:35:56.844Z,11.48
2022-10-23T04:37:59.528Z,9.35
2022-10-23T04:40:02.138Z,8.60
2022-10-23T04:42:06.287Z,10.75
2022-10-23T04:44:09.367Z,8.43
2022-10-23T04:46:11.992Z,9.30
2022-10-23T04:48:14.626Z,10.10
2022-10-23T04:50:17.626Z,6.75
2022-10-23T04:52:20.292Z,7.93
2022-10-23T04:54:22.895Z,10.10
2022-10-23T04:56:25.568Z,10.45
2022-10-23T04:58:30.332Z,10.02
2022-10-23T05:00:33.073Z,8.52
2022-10-23T05:02:35.861Z,13.27
2022-10-23T05:04:38.701Z,12.43
2022-10-23T05:06:41.332Z,11.15
2022-10-23T05:08:43.935Z,11.20
2022-10-23T05:10:46.577Z,8.95
2022-10-23T05:12:49.226Z,6.75
2022-10-23T05:14:53.319Z,8.40
2022-10-23T05:17:00.024Z,9.55
2022-10-23T05:19:03.329Z,11.25
2022-10-23T05:21:11.299Z,11.52
2022-10-23T05:23:17.648Z,9.38
2022-10-23T05:25:20.657Z,10.75
2022-10-23T05:27:23.282Z,8.80
2022-10-23T05:29:25.997Z,9.63
2022-10-23T05:31:30.310Z,6.70
2022-10-23T05:33:34.050Z,13.23
2022-10-23T05:35:37.805Z,10.48
2022-10-23T05:37:44.887Z,9.95
2022-10-23T05:39:47.529Z,7.38
2022-10-23T05:41:51.155Z,7.13
2022-10-23T05:43:54.130Z,7.65
2022-10-23T05:45:56.805Z,8.10
2022-10-23T05:48:10.896Z,7.80
2022-10-23T05:50:19.608Z,9.27
2022-10-23T05:52:22.206Z,10.10
2022-10-23T05:54:24.895Z,7.28
2022-10-23T05:56:27.578Z,13.05
2022-10-23T05:58:30.252Z,7.90
2022-10-23T06:00:33.071Z,8.82
2022-10-23T06:02:35.833Z,7.63
2022-10-23T06:04:39.940Z,16.17
2022-10-23T06:06:42.727Z,29.48
2022-10-23T06:08:45.339Z,35.88
2022-10-23T06:10:48.017Z,31.10
2022-10-23T06:12:50.636Z,17.77
2022-10-23T06:14:53.284Z,16.90
2022-10-23T06:16:55.893Z,11.82
2022-10-23T06:18:58.661Z,9.65
2022-10-23T06:21:02.755Z,8.65
2022-10-23T06:23:05.539Z,9.63
2022-10-23T06:25:09.518Z,9.38
2022-10-23T06:27:12.197Z,8.75
2022-10-23T06:29:14.870Z,14.45
2022-10-23T06:31:19.131Z,10.10
2022-10-23T06:33:21.762Z,9.23
2022-10-23T06:35:24.510Z,7.55
2022-10-23T06:37:28.497Z,6.70
2022-10-23T06:39:32.297Z,7.97
2022-10-23T06:41:35.121Z,7.53
2022-10-23T06:43:37.786Z,7.05
2022-10-23T06:45:40.476Z,8.02
2022-10-23T06:47:43.457Z,9.13
2022-10-23T06:49:46.283Z,13.30
2022-10-23T06:51:48.952Z,16.02
2022-10-23T06:53:52.885Z,14.98
2022-10-23T06:56:00.600Z,19.30
2022-10-23T06:58:03.262Z,14.38
2022-10-23T07:00:07.061Z,11.00
2022-10-23T07:02:10.230Z,13.07
2022-10-23T07:04:13.672Z,11.13
2022-10-23T07:06:16.486Z,8.68
2022-10-23T07:08:19.112Z,7.88
2022-10-23T07:10:23.227Z,8.20
2022-10-23T07:12:26.049Z,8.27
2022-10-23T07:14:32.068Z,8.18
2022-10-23T07:16:34.669Z,7.95
2022-10-23T07:18:37.379Z,6.18
2022-10-23T07:20:39.993Z,7.85
2022-10-23T07:22:42.842Z,6.30
2022-10-23T07:24:45.621Z,6.35
2022-10-23T07:28:55.100Z,7.13
2022-10-23T07:30:58.906Z,9.73
2022-10-23T07:33:01.523Z,6.57
2022-10-23T07:35:04.533Z,7.75
2022-10-23T07:37:07.251Z,6.60
2022-10-23T07:39:10.032Z,5.68
2022-10-23T07:41:13.142Z,5.43
2022-10-23T07:43:18.357Z,7.45
2022-10-23T07:45:21.145Z,17.40
2022-10-23T07:47:23.756Z,9.43
2022-10-23T07:49:26.527Z,8.23
2022-10-23T07:51:29.311Z,9.15
2022-10-23T07:53:32.033Z,11.38
2022-10-23T07:55:34.667Z,9.65
2022-10-23T07:57:39.622Z,9.20
2022-10-23T07:59:43.649Z,9.48
2022-10-23T08:01:49.511Z,7.72
2022-10-23T08:03:54.155Z,5.70
2022-10-23T08:05:57.190Z,10.02
2022-10-23T08:07:59.800Z,6.68
2022-10-23T08:10:02.467Z,6.43
2022-10-23T08:12:05.388Z,7.63
2022-10-23T08:14:08.280Z,5.75
2022-10-23T08:16:12.410Z,9.55
2022-10-23T08:18:15.694Z,5.13
2022-10-23T08:20:18.468Z,5.97
2022-10-23T08:22:21.132Z,9.02
2022-10-23T08:24:24.255Z,6.85
2022-10-23T08:26:29.278Z,8.02
2022-10-23T08:28:33.249Z,4.18
2022-10-23T08:30:36.314Z,7.82
2022-10-23T08:32:40.503Z,7.45
2022-10-23T08:34:43.168Z,4.85
2022-10-23T08:36:45.814Z,4.57
2022-10-23T08:38:48.531Z,5.85
2022-10-23T08:40:51.298Z,7.10
2022-10-23T08:43:00.883Z,7.10
2022-10-23T08:45:09.019Z,7.20
2022-10-23T08:47:15.593Z,6.70
2022-10-23T08:49:30.601Z,5.90
2022-10-23T08:51:42.357Z,5.75
2022-10-23T08:53:53.326Z,4.63
2022-10-23T08:56:03.033Z,3.75
2022-10-23T08:58:08.362Z,6.22
2022-10-23T09:00:15.072Z,7.45
2022-10-23T09:02:21.577Z,5.90
2022-10-23T09:04:25.764Z,4.28
2022-10-23T09:06:37.901Z,4.47
2022-10-23T09:08:48.566Z,5.57
2022-10-23T09:11:04.952Z,4.32
2022-10-23T09:13:22.694Z,4.70
2022-10-23T09:15:31.515Z,5.50
2022-10-23T09:17:35.625Z,5.82
2022-10-23T09:19:39.631Z,6.97
2022-10-23T09:21:42.358Z,3.75
2022-10-23T09:23:45.036Z,4.50
2022-10-23T09:25:50.877Z,5.22
2022-10-23T09:27:57.430Z,6.45
2022-10-23T09:30:02.643Z,2.50
2022-10-23T09:32:07.584Z,5.18
2022-10-23T09:34:20.672Z,5.53
2022-10-23T09:36:25.932Z,4.72
2022-10-23T09:38:32.639Z,5.03
2022-10-23T09:40:41.627Z,7.03
2022-10-23T09:42:56.042Z,5.53
2022-10-23T09:44:58.761Z,6.78
2022-10-23T09:47:11.102Z,6.47
2022-10-23T09:49:19.193Z,9.85
2022-10-23T09:51:24.584Z,3.97
2022-10-23T09:53:32.425Z,5.57
2022-10-23T09:55:35.355Z,3.28
2022-10-23T09:57:43.301Z,5.70
2022-10-23T09:59:52.218Z,4.10
2022-10-23T10:01:57.729Z,4.75
2022-10-23T10:04:00.687Z,4.53
2022-10-23T10:06:05.473Z,7.65
2022-10-23T10:08:19.138Z,5.05
2022-10-23T10:10:21.941Z,5.45
2022-10-23T10:12:35.618Z,3.55
2022-10-23T10:14:52.759Z,4.53
2022-10-23T10:16:59.774Z,5.05
2022-10-23T10:19:08.241Z,5.45
2022-10-23T10:21:18.321Z,3.10
2022-10-23T10:23:29.643Z,5.63
2022-10-23T10:25:37.858Z,5.30
2022-10-23T10:27:53.496Z,4.25
2022-10-23T10:30:05.249Z,7.20
2022-10-23T10:32:25.039Z,10.15
2022-10-23T10:34:31.317Z,6.50
2022-10-23T10:36:45.169Z,6.40
2022-10-23T10:38:52.454Z,3.47
2022-10-23T10:41:19.190Z,9.73
2022-10-23T10:43:32.934Z,4.97
2022-10-23T10:45:39.557Z,5.13
2022-10-23T10:47:51.677Z,5.50
2022-10-23T10:50:07.911Z,4.03
2022-10-23T10:52:15.861Z,4.97
2022-10-23T10:54:34.947Z,5.03
2022-10-23T10:56:40.804Z,4.22
2022-10-23T10:58:48.989Z,4.60
2022-10-23T11:00:57.032Z,4.07
2022-10-23T11:03:03.662Z,5.30
2022-10-23T11:05:15.999Z,4.22
2022-10-23T11:07:23.382Z,6.13
2022-10-23T11:09:29.979Z,11.10
2022-10-23T11:11:40.489Z,4.22
2022-10-23T11:13:44.950Z,4.40
2022-10-23T11:15:48.157Z,4.13
2022-10-23T11:17:55.114Z,7.03
2022-10-23T11:20:04.041Z,7.03
2022-10-23T11:22:13.307Z,4.88
2022-10-23T11:24:55.778Z,4.97
2022-10-23T11:27:27.131Z,3.95
2022-10-23T11:29:51.709Z,6.72
2022-10-23T11:32:07.411Z,5.50
2022-10-23T11:34:38.421Z,3.67
2022-10-23T11:36:47.759Z,5.18
2022-10-23T11:38:53.012Z,4.38
2022-10-23T11:40:58.220Z,4.70
2022-10-23T11:43:02.308Z,4.43
2022-10-23T11:45:05.761Z,5.10
2022-10-23T11:47:36.301Z,3.85
2022-10-23T11:49:40.828Z,4.90
2022-10-23T11:51:43.570Z,7.85
2022-10-23T11:53:46.201Z,5.03
2022-10-23T11:56:00.770Z,6.22
2022-10-23T11:58:21.270Z,4.05
2022-10-23T12:00:25.234Z,7.03
2022-10-23T12:02:32.609Z,5.25
2022-10-23T12:04:42.089Z,5.07
2022-10-23T12:06:48.661Z,5.15
2022-10-23T12:08:54.181Z,6.20
2022-10-23T12:10:56.817Z,5.50
2022-10-23T12:13:01.860Z,4.28
2022-10-23T12:15:19.750Z,6.43
2022-10-23T12:17:35.734Z,4.20
2022-10-23T12:19:49.002Z,3.53
2022-10-23T12:21:53.737Z,8.57
2022-10-23T12:24:31.971Z,3.83
2022-10-23T12:28:55.728Z,4.15
2022-10-23T12:31:12.353Z,5.10
2022-10-23T12:33:22.448Z,4.43
2022-10-23T12:35:54.686Z,4.80
2022-10-23T12:38:09.588Z,3.85
2022-10-23T12:40:13.326Z,4.35
2022-10-23T12:42:20.606Z,4.57
2022-10-23T12:44:25.239Z,6.97
2022-10-23T12:46:37.487Z,4.30
2022-10-23T12:48:49.492Z,4.97
2022-10-23T12:50:54.576Z,3.78
2022-10-23T12:52:59.039Z,6.50
2022-10-23T12:55:02.063Z,8.13
2022-10-23T12:57:20.060Z,4.65
2022-10-23T12:59:27.078Z,5.93
2022-10-23T13:01:31.077Z,4.72
2022-10-23T13:03:36.300Z,8.70
2022-10-23T13:05:39.124Z,5.05
2022-10-23T13:07:46.428Z,4.97
2022-10-23T13:09:49.716Z,6.95
2022-10-23T13:11:53.228Z,5.93
2022-10-23T13:13:55.902Z,6.93
2022-10-23T13:15:58.549Z,7.60
2022-10-23T13:18:03.548Z,5.00
2022-10-23T13:20:20.216Z,5.63
2022-10-23T13:22:23.662Z,6.28
2022-10-23T13:24:28.606Z,5.65
2022-10-23T13:26:33.849Z,7.43
2022-10-23T13:28:43.760Z,7.00
2022-10-23T13:30:57.758Z,5.82
2022-10-23T13:33:00.910Z,5.50
2022-10-23T13:35:04.330Z,7.85
2022-10-23T13:37:26.833Z,7.57
2022-10-23T13:39:31.752Z,7.60
2022-10-23T13:41:38.123Z,18.00
2022-10-23T13:43:41.010Z,10.93
2022-10-23T13:45:43.639Z,11.18
2022-10-23T13:47:46.489Z,9.65
2022-10-23T13:49:49.261Z,9.43
2022-10-23T13:51:53.445Z,7.45
2022-10-23T13:53:59.458Z,10.55
2022-10-23T13:56:02.079Z,6.07
2022-10-23T13:58:04.740Z,5.90
2022-10-23T14:00:09.270Z,7.43
2022-10-23T14:02:20.481Z,8.15
2022-10-23T14:04:23.869Z,6.45
2022-10-23T14:06:26.740Z,10.15
2022-10-23T14:08:29.359Z,5.78
2022-10-23T14:10:33.770Z,3.83
2022-10-23T14:12:41.279Z,7.05
2022-10-23T14:14:44.066Z,5.15
2022-10-23T14:16:46.684Z,5.30
2022-10-23T14:18:49.343Z,4.38
2022-10-23T14:20:51.983Z,7.68
2022-10-23T14:22:54.631Z,5.32
2022-10-23T14:24:58.006Z,6.47
2022-10-23T14:27:02.010Z,4.95
2022-10-23T14:29:08.946Z,5.63
2022-10-23T14:31:16.502Z,6.22
2022-10-23T14:33:19.134Z,7.05
2022-10-23T14:35:22.043Z,4.20
2022-10-23T14:37:24.632Z,8.35
2022-10-23T14:39:27.229Z,5.72
2022-10-23T14:41:29.902Z,5.45
2022-10-23T14:43:33.931Z,7.80
2022-10-23T14:45:37.475Z,8.80
2022-10-23T14:47:40.084Z,6.05
2022-10-23T14:49:42.888Z,8.88
2022-10-23T14:51:45.586Z,6.95
2022-10-23T14:53:49.538Z,6.68
2022-10-23T14:55:52.151Z,5.10
2022-10-23T14:57:55.928Z,5.68
2022-10-23T14:59:59.898Z,4.68
2022-10-23T15:02:02.605Z,5.10
2022-10-23T15:04:05.543Z,5.53
2022-10-23T15:06:08.734Z,4.38
2022-10-23T15:08:11.356Z,7.32
2022-10-23T15:10:14.263Z,7.45
2022-10-23T15:12:16.912Z,6.55
2022-10-23T15:14:19.970Z,7.20
2022-10-23T15:16:24.902Z,5.82
2022-10-23T15:18:27.623Z,16.02
2022-10-23T15:20:30.248Z,7.90
2022-10-23T15:22:32.910Z,9.18
2022-10-23T15:24:35.599Z,7.60
2022-10-23T15:26:38.533Z,4.05
2022-10-23T15:28:41.161Z,8.80
2022-10-23T15:30:45.554Z,5.22
2022-10-23T15:32:49.584Z,10.68
2022-10-23T15:34:53.696Z,5.47
2022-10-23T15:36:57.824Z,7.93
2022-10-23T15:39:00.850Z,9.32
2022-10-23T15:41:15.256Z,10.60
2022-10-23T15:43:18.346Z,6.55
2022-10-23T15:45:21.065Z,7.05
2022-10-23T15:47:23.722Z,9.32
2022-10-23T15:49:30.471Z,6.22
2022-10-23T15:51:33.266Z,5.93
2022-10-23T15:53:35.898Z,7.65
2022-10-23T15:55:38.512Z,5.82
2022-10-23T15:57:42.076Z,6.15
2022-10-23T15:59:44.707Z,7.53
2022-10-23T16:01:47.446Z,7.25
2022-10-23T16:03:50.162Z,8.60
2022-10-23T16:05:54.158Z,8.98
2022-10-23T16:07:56.756Z,5.32
2022-10-23T16:09:59.794Z,17.25
2022-10-23T16:12:02.572Z,13.23
2022-10-23T16:14:06.043Z,9.00
2022-10-23T16:16:09.243Z,9.70
2022-10-23T16:18:13.048Z,7.57
2022-10-23T16:20:16.056Z,7.20
2022-10-23T16:22:20.080Z,7.47
2022-10-23T16:24:22.729Z,10.23
2022-10-23T16:26:25.986Z,7.25
2022-10-23T16:28:28.608Z,9.63
2022-10-23T16:30:31.363Z,9.43
2022-10-23T16:32:34.006Z,5.40
2022-10-23T16:34:36.614Z,5.75
2022-10-23T16:36:39.402Z,7.05
2022-10-23T16:38:43.466Z,9.35
2022-10-23T16:40:52.632Z,4.60
2022-10-23T16:42:55.279Z,6.35
2022-10-23T16:44:57.957Z,8.98
2022-10-23T16:47:00.680Z,7.57
2022-10-23T16:49:04.114Z,10.88
2022-10-23T16:51:08.109Z,8.45
2022-10-23T16:53:10.749Z,7.70
2022-10-23T16:55:14.770Z,9.55
2022-10-23T16:57:17.732Z,10.43
2022-10-23T16:59:20.370Z,8.23
2022-10-23T17:01:24.584Z,9.48
2022-10-23T17:03:27.533Z,5.95
2022-10-23T17:05:33.485Z,5.90
2022-10-23T17:07:37.135Z,10.77
2022-10-23T17:09:39.766Z,7.05
2022-10-23T17:11:46.789Z,6.95
2022-10-23T17:13:53.974Z,11.43
2022-10-23T17:16:09.265Z,9.55
2022-10-23T17:18:11.872Z,7.45
2022-10-23T17:20:14.592Z,8.15
2022-10-23T17:22:17.281Z,10.80
2022-10-23T17:24:20.715Z,9.70
2022-10-23T17:26:23.510Z,9.15
2022-10-23T17:28:28.474Z,9.82
2022-10-23T17:30:31.081Z,8.40
2022-10-23T17:32:35.558Z,11.95
2022-10-23T17:34:38.224Z,9.40
2022-10-23T17:36:43.777Z,8.48
2022-10-23T17:38:46.914Z,12.98
2022-10-23T17:40:49.538Z,14.80
2022-10-23T17:42:52.262Z,9.75
2022-10-23T17:44:56.396Z,9.27
2022-10-23T17:46:59.120Z,10.63
2022-10-23T17:49:03.970Z,10.90
2022-10-23T17:51:09.151Z,8.63
2022-10-23T17:53:11.780Z,8.80
2022-10-23T17:55:14.641Z,14.23
2022-10-23T17:57:17.293Z,12.80
2022-10-23T17:59:20.228Z,8.35
2022-10-23T18:01:26.144Z,13.30
2022-10-23T18:03:28.929Z,8.60
2022-10-23T18:05:33.279Z,9.45
2022-10-23T18:07:35.964Z,8.30
2022-10-23T18:09:38.615Z,8.20
2022-10-23T18:11:45.459Z,8.63
2022-10-23T18:13:51.630Z,8.55
2022-10-23T18:15:54.236Z,9.02
2022-10-23T18:17:58.267Z,8.35
2022-10-23T18:20:02.195Z,8.15
2022-10-23T18:22:05.050Z,7.65
2022-10-23T18:24:08.318Z,7.78
2022-10-23T18:26:16.596Z,5.63
2022-10-23T18:28:19.817Z,8.68
2022-10-23T18:30:22.505Z,7.68
2022-10-23T18:32:25.921Z,10.20
2022-10-23T18:34:29.895Z,7.68
2022-10-23T18:36:34.594Z,8.35
2022-10-23T18:38:37.305Z,8.95
2022-10-23T18:40:40.956Z,7.28
2022-10-23T18:42:43.793Z,7.85
2022-10-23T18:44:49.886Z,7.68
2022-10-23T18:46:53.352Z,8.77
2022-10-23T18:48:56.169Z,7.53
2022-10-23T18:51:01.041Z,8.98
2022-10-23T18:53:03.985Z,8.02
2022-10-23T18:55:08.318Z,9.00
2022-10-23T18:57:10.979Z,8.68
2022-10-23T19:01:38.170Z,10.07
2022-10-23T19:03:40.933Z,9.82
2022-10-23T19:05:44.305Z,7.72
2022-10-23T19:07:55.632Z,9.93
2022-10-23T19:10:09.920Z,7.20
2022-10-23T19:12:34.248Z,6.55
2022-10-23T19:14:58.276Z,10.13
2022-10-23T19:17:03.941Z,5.82
2022-10-23T19:19:12.313Z,8.20
2022-10-23T19:21:15.547Z,13.13
2022-10-23T19:23:19.546Z,8.48
2022-10-23T19:25:26.169Z,6.00
2022-10-23T19:27:29.382Z,8.43
2022-10-23T19:29:32.967Z,5.70
2022-10-23T19:31:35.693Z,5.30
2022-10-23T19:33:39.323Z,7.25
2022-10-23T19:35:42.197Z,6.80
2022-10-23T19:37:45.158Z,6.45
2022-10-23T19:39:49.328Z,7.05
2022-10-23T19:41:52.518Z,6.25
2022-10-23T19:43:55.139Z,4.30
2022-10-23T19:45:59.458Z,9.43
2022-10-23T19:48:02.152Z,5.72
2022-10-23T19:50:05.492Z,7.68
2022-10-23T19:52:08.254Z,6.45
2022-10-23T19:54:11.120Z,4.22
2022-10-23T19:56:15.110Z,4.22
2022-10-23T19:58:18.732Z,6.18
2022-10-23T20:00:21.419Z,8.07
2022-10-23T20:02:24.167Z,6.20
2022-10-23T20:04:28.728Z,5.90
2022-10-23T20:06:34.488Z,9.45
2022-10-23T20:08:37.210Z,4.03
2022-10-23T20:10:42.170Z,5.00
2022-10-23T20:12:56.370Z,4.13
2022-10-23T20:14:59.842Z,3.97
2022-10-23T20:17:02.602Z,6.13
2022-10-23T20:19:07.108Z,3.75
2022-10-23T20:21:09.869Z,5.47
2022-10-23T20:23:12.596Z,5.57
2022-10-23T20:25:15.173Z,4.32
2022-10-23T20:27:18.602Z,5.88
2022-10-23T20:29:24.593Z,6.57
2022-10-23T20:31:28.788Z,3.72
2022-10-23T20:33:31.404Z,6.63
2022-10-23T20:35:39.018Z,4.22
2022-10-23T20:37:41.939Z,4.60
2022-10-23T20:39:44.747Z,3.38
2022-10-23T20:41:48.245Z,5.97
2022-10-23T20:43:50.927Z,5.70
2022-10-23T20:45:54.899Z,5.20
2022-10-23T20:47:58.291Z,8.68
2022-10-23T20:50:00.896Z,7.05
2022-10-23T20:52:03.716Z,5.05
2022-10-23T20:54:06.978Z,5.55
2022-10-23T20:56:13.772Z,5.43
2022-10-23T20:58:16.365Z,4.65
2022-10-23T21:00:19.071Z,8.23
2022-10-23T21:02:23.193Z,8.82
2022-10-23T21:04:28.609Z,8.25
2022-10-23T21:06:45.759Z,7.45
2022-10-23T21:08:57.395Z,7.38
2022-10-23T21:11:00.333Z,6.45
2022-10-23T21:13:02.943Z,4.25
2022-10-23T21:15:06.422Z,6.25
2022-10-23T21:17:11.909Z,9.35
2022-10-23T21:19:17.184Z,9.45
2022-10-23T21:21:22.059Z,5.88
2022-10-23T21:23:24.635Z,8.15
2022-10-23T21:25:27.414Z,11.77
2022-10-23T21:27:30.106Z,6.32
2022-10-23T21:29:32.686Z,10.75
2022-10-23T21:31:36.091Z,7.07
2022-10-23T21:33:38.741Z,11.75
2022-10-23T21:35:52.272Z,8.57
2022-10-23T21:38:00.809Z,7.20
2022-10-23T21:40:03.469Z,8.73
2022-10-23T21:42:06.212Z,8.60
2022-10-23T21:44:08.853Z,7.85
2022-10-23T21:46:13.324Z,8.02
2022-10-23T21:48:15.896Z,6.88
2022-10-23T21:50:18.509Z,8.43
2022-10-23T21:52:22.576Z,9.65
2022-10-23T21:54:25.192Z,12.88
2022-10-23T21:56:32.036Z,5.53
2022-10-23T21:58:34.633Z,12.85
2022-10-23T22:00:37.230Z,6.72
2022-10-23T22:02:39.910Z,9.50
2022-10-23T22:04:42.626Z,8.63
2022-10-23T22:06:46.680Z,8.70
2022-10-23T22:08:51.812Z,10.30
2022-10-23T22:10:54.820Z,10.27
2022-10-23T22:12:57.428Z,8.70
2022-10-23T22:15:00.087Z,10.20
2022-10-23T22:17:02.725Z,8.15
2022-10-23T22:19:05.653Z,10.90
2022-10-23T22:21:11.289Z,11.30
2022-10-23T22:23:13.915Z,12.52
2022-10-23T22:25:18.141Z,11.52
2022-10-23T22:27:20.732Z,7.35
2022-10-23T22:29:25.809Z,7.93
2022-10-23T22:31:30.713Z,12.40
2022-10-23T22:33:33.310Z,11.32
2022-10-23T22:35:35.932Z,8.70
2022-10-23T22:37:38.548Z,9.25
2022-10-23T22:39:41.316Z,10.15
2022-10-23T22:41:45.400Z,11.63
2022-10-23T22:43:48.484Z,7.65
2022-10-23T22:45:51.081Z,9.02
2022-10-23T22:47:53.649Z,8.95
2022-10-23T22:49:56.252Z,9.52
2022-10-23T22:51:58.866Z,7.80
2022-10-23T22:54:01.535Z,9.00
2022-10-23T22:56:07.475Z,9.60
2022-10-23T22:58:11.434Z,8.85
2022-10-23T23:00:15.057Z,12.38
2022-10-23T23:02:17.757Z,11.85
2022-10-23T23:06:42.887Z,8.40
2022-10-23T23:08:46.763Z,11.10
2022-10-23T23:10:53.262Z,10.85
2022-10-23T23:12:55.870Z,10.52
2022-10-23T23:15:02.000Z,11.93
2022-10-23T23:17:05.987Z,9.60
2022-10-23T23:19:08.669Z,11.88
2022-10-23T23:21:11.259Z,6.30
2022-10-23T23:23:14.347Z,10.45
2022-10-23T23:25:17.030Z,10.88
2022-10-23T23:27:19.618Z,8.70
2022-10-23T23:29:22.640Z,10.52
2022-10-23T23:31:27.876Z,10.50
2022-10-23T23:33:30.453Z,10.65
2022-10-23T23:35:33.119Z,11.05
2022-10-23T23:37:35.733Z,7.13
2022-10-23T23:39:38.334Z,8.68
2022-10-23T23:41:40.896Z,13.40
2022-10-23T23:43:44.162Z,8.43
2022-10-23T23:45:46.842Z,8.45
2022-10-23T23:47:50.822Z,9.70
2022-10-23T23:49:53.415Z,8.88
2022-10-23T23:51:55.968Z,10.70
2022-10-23T23:53:58.585Z,8.30
2022-10-23T23:56:01.228Z,7.72
2022-10-23T23:58:03.832Z,11.27
